Data Entry Status of Reservoirs as on 09/12/2022 (Average Data)
S.NO Unit Name District Reservoir Name Current Capacity
in T.M.C.
Current Level
in Feet
Inflow
in Cusecs
Outflow
in Cusecs
Last Entry Time
Updated
1 CE , Godavari Delta Systems, HQ : Dowlaiswaram East Godavari Godavari Delta System 2.93 45.0 12005.0 12700.0 09/12/2022 06:00
2 CE , Godavari Delta Systems, HQ : Dowlaiswaram East Godavari YELERU 21.04 278.94 175.0 175.0 09/12/2022 06:00
3 CE , Godavari Delta Systems, HQ : Dowlaiswaram West Godavari Yerra Kalva 2.907 267.91 0.0 0.0 09/12/2022 06:00
4 CE , Krishna Delta System, HQ : Vijayawada Guntur Dr.KLRS Pulichintala 45.05 174.54 5481.0 2200.0 09/12/2022 06:00
5 CE , Krishna Delta System, HQ : Vijayawada Krishna Krishna Delta System 3.07 57.05 4835.0 4835.0 09/12/2022 06:00
6 CE Minor, Vijayawada Ananthapur Upper Pennar Anicut 1.81 1759.98 100.0 100.0 09/12/2022 06:00
7 CE Minor, Vijayawada West Godavari Jalleru 0.392 706.36 0.0 50.0 09/12/2022 06:00
8 CE , North Coast, HQ : Visakhapatnam Srikakulam Madduvalasa 2.888 211.61 1993.0 2809.0 09/12/2022 06:00
9 CE , North Coast, HQ : Visakhapatnam Srikakulam Vamshadhara 0.61 125.0 1143.0 1143.0 09/12/2022 06:00
10 CE , North Coast, HQ : Visakhapatnam Visahakapatnam Raiwada Reservoir Project 3.045 369.42 126.0 126.0 09/12/2022 06:00
11 CE , North Coast, HQ : Visakhapatnam Visahakapatnam Tenneti Viswanadham Pedderu 0.3067 446.35828 31.0 0.0 09/12/2022 06:00
12 CE , North Coast, HQ : Visakhapatnam Vizianagaram Peddagadda 0.877 699.21 50.0 50.0 09/12/2022 06:00
13 CE , North Coast, HQ : Visakhapatnam Vizianagaram Thatipudi Reservoir 3.113 295.47 20.0 30.0 09/12/2022 06:00
14 CE , North Coast, HQ : Visakhapatnam Vizianagaram Thotapalli Reservoir 1.412 338.16 667.0 1836.0 09/12/2022 06:00
15 CE , North Coast, HQ : Visakhapatnam Vizianagaram Vengalarayasagar Project 0.63 511.81 1750.0 1750.0 09/12/2022 06:00
16 CE, (Projects) HNSS, Ananthapur Ananthapur Bhairavani Tippa 2.001 1655.0 183.0 183.0 09/12/2022 06:00
17 CE , (Projects) Irrigation, Kadapa, HQ : Kadapa Kadapa Annamayya 0.0 0.0 0.0 0.0 09/12/2022 06:00
18 CE , (Projects) Irrigation, Kadapa, HQ : Kadapa Kadapa SPVB Reservoir(Brahmamgari Mattam) 16.059 699.434 325.0 619.0 09/12/2022 06:00
19 CE , (Projects) Irrigation, Kadapa, HQ : Kadapa Kadapa Veligallu Project 4.573 1377.4 81.0 320.0 09/12/2022 06:00
20 CE , (Projects) Irrigation, Kurnool, HQ : Kurnool Kurnool Gajuladinne Project 3.646 1235.2635 156.0 150.0 09/12/2022 07:00
21 CE , (Projects) Irrigation, Kurnool, HQ : Kurnool Kurnool SRISAILAM 125.43 865.8 417.0 14631.0 09/12/2022 06:00
22 CE , (Projects) Irrigation, Kurnool, HQ : Kurnool Kurnool Sunkesula 1.15 957.35 667.0 505.0 09/12/2022 06:00
23 CE , (Projects) Irrigation, Kurnool, HQ : Kurnool Kurnool Veligodu Balancing Reservoir 15.8 866.3 0.0 1350.0 09/12/2022 06:00
24 CE , (Projects) Ongole, HQ : Ongole Guntur NAGARJUNA SAGAR 297.72 585.1 2943.0 19638.0 09/12/2022 06:00
25 CE , (Projects) Ongole, HQ : Ongole Prakasam Cumbum Tank 2.208 663.54 0.0 20.0 09/12/2022 06:00
26 CE , (Projects) Ongole, HQ : Ongole Prakasam Mopadu Reservoir 0.757 323.39 0.0 0.0 09/12/2022 06:00
27 CE , (Projects) Ongole, HQ : Ongole Prakasam Rallapadu Reservoir 0.947 133.15 95.0 83.0 09/12/2022 06:00
28 CE , TGP Tirupathi, HQ : Tirupati Nellore Gandipalem 0.757 470.1 0.0 45.0 09/12/2022 06:00
29 CE , TGP Tirupathi, HQ : Tirupati Nellore KANDALERU 53.48 268.58 3870.0 2390.0 09/12/2022 06:00
30 CE , TGP Tirupathi, HQ : Tirupati Nellore SOMASILA 70.29 326.52 5115.0 7754.0 09/12/2022 06:00
31 ENC Irrigation, HQ: Vijayawada Ananthapur PABR 5.185 1428.62 870.0 870.0 09/12/2022 08:00
32 ENC Irrigation, HQ: Vijayawada Kadapa Chitravathi Balancing Reservoir 9.6387 976.07 330.0 170.0 09/12/2022 06:00
33 ENC PIP East Godavari Musurimalli 0.56 377.29 150.0 150.0 09/12/2022 06:00
34 Flood Monitoring Cell, Vijayawada Karnataka TUNGABHADRA 88.83 1628.58 998.0 6438.0 09/12/2022 06:00
35 Flood Monitoring Cell, Vijayawada Maharastra Jaikwad 99.54 1521.24 0.0 2441.0 09/12/2022 06:00
36 Flood Monitoring Cell, Vijayawada Maharastra Ujjaini 117.24 1630.0 0.0 429.0 09/12/2022 06:00
37 Flood Monitoring Cell, Vijayawada Telangana JURALA 9.62 1044.95 1822.0 873.0 09/12/2022 06:00
38 Flood Monitoring Cell, Vijayawada Telangana Sri Pada Yellampally 20.17 485.56 525.0 525.0 09/12/2022 06:00
39 Flood Monitoring Cell, Vijayawada Telangana SRI RAM SAGAR 90.31 1091.0 764.0 764.0 09/12/2022 06:00
Not Updated
40 Boggulavagu 0.393 159.3 0.0 30.0 19/09/2020 08:49
41 CE , Godavari Delta Systems, HQ : Dowlaiswaram East Godavari Maddigedda Reservoir Project 0.13 593.18 35.0 0.0 13/07/2019 07:00
42 CE , Godavari Delta Systems, HQ : Dowlaiswaram East Godavari Pampa Reservoir 0.269 98.92 40.0 100.0 06/09/2022 15:32
43 CE , Godavari Delta Systems, HQ : Dowlaiswaram East Godavari Subbareddy Sagar 0.0538 255.9 111.0 0.0 13/07/2019 07:00
44 CE , Godavari Delta Systems, HQ : Dowlaiswaram Krishna GONELAVAGU RESERVOIR 1.115 347.55 800.0 270.0 07/10/2022 06:00
45 CE , Godavari Delta Systems, HQ : Dowlaiswaram West Godavari Kovvada Kalva 0.178 282.8 60.0 15.0 21/09/2019 06:00
46 CE , Godavari Delta Systems, HQ : Dowlaiswaram West Godavari Tammileru 0.546 345.19 0.0 0.0 07/12/2022 06:00
47 CE , Krishna Delta System, HQ : Vijayawada Krishna Muniyeru Anicut 0.01 217.81 100.0 0.0 30/01/2019 06:00
48 CE Minor, Vijayawada Chittor KALYANI DAM 0.079 842.65 0.0 3.1 05/09/2019 09:10
49 CE Minor, Vijayawada Chittor Pedderu 0.56 1579.35 0.0 5.78 17/09/2020 06:00
50 CE Minor, Vijayawada Nellore Nellore Anicut 0.01 10.6 0.0 0.0 05/10/2018 06:00
51 CE , North Coast, HQ : Visakhapatnam Srikakulam Narayanapuram Anicut 0.0 95.04 3100.0 3100.0 14/08/2022 16:19
52 CE , North Coast, HQ : Visakhapatnam Visahakapatnam Konam Reservoir Project 0.085 297.496 2.0 30.0 27/03/2019 06:00
53 CE , North Coast, HQ : Visakhapatnam Visahakapatnam Mahadrigadda Reservoir 0.678 55.4 0.0 0.0 10/08/2022 16:23
54 CE , North Coast, HQ : Visakhapatnam Visahakapatnam Thandava Reservoir Project 3.36 374.0 380.0 0.0 16/07/2020 06:00
55 CE , North Coast, HQ : Visakhapatnam Vizianagaram Andra Reservoir 0.795 474.9 20.0 40.0 21/09/2022 06:00
56 CE , North Coast, HQ : Visakhapatnam Vizianagaram Vottigedda Reservoir 0.456 385.1 540.0 205.0 10/08/2022 15:53
57 CE, (Projects) HNSS, Ananthapur Ananthapur CHAGALLU BALANCING RESERVOIR 0.79 865.59 9000.0 8160.0 11/09/2022 16:31
58 CE, (Projects) HNSS, Ananthapur Ananthapur CHENNARAYA SWAMI GUDI PROJECT NA NA NA NA NA
59 CE, (Projects) HNSS, Ananthapur Ananthapur Jeedipalli Reservoir 1.467 1520.2 920.0 800.0 24/09/2019 06:00
60 CE, (Projects) HNSS, Ananthapur Ananthapur Mid Pennar 4.85 1198.0 10940.0 9730.0 11/09/2022 16:35
61 CE, (Projects) HNSS, Ananthapur Ananthapur Yogivemana Reservoir Project 0.754 1254.46 116.0 20.0 11/09/2022 16:37
62 CE, (Projects) HNSS, Ananthapur Kurnool krishnagiri 0.152 1209.664 30.0 30.0 09/11/2019 06:00
63 CE , (Projects) Irrigation, Kadapa, HQ : Kadapa Kadapa Badvel Tank NA NA NA NA NA
64 CE , (Projects) Irrigation, Kadapa, HQ : Kadapa Kadapa Buggavanka Reservoir 0.042 570.54 0.0 0.0 16/07/2020 08:00
65 CE , (Projects) Irrigation, Kadapa, HQ : Kadapa Kadapa GANDIKOTA RESERVOIR 6.66 205.35 7893.0 3060.0 29/08/2019 07:00
66 CE , (Projects) Irrigation, Kadapa, HQ : Kadapa Kadapa Jerrikona Reservoir NA NA NA NA NA
67 CE , (Projects) Irrigation, Kadapa, HQ : Kadapa Kadapa Mylavaram reservoir 0.948 624.573 0.0 159.0 02/01/2019 10:00
68 CE , (Projects) Irrigation, Kadapa, HQ : Kadapa Kadapa Paidipalem Reservoir 1.606 858.25 0.0 200.0 26/02/2019 07:00
69 CE , (Projects) Irrigation, Kadapa, HQ : Kadapa Kadapa Subsidary Reservoir II of TGP Main Canal 1.1098 705.053 0.0 20.0 27/12/2018 07:30
70 CE , (Projects) Irrigation, Kadapa, HQ : Kadapa Kadapa Subsidary Reservoir I of TGP Main Canal 0.47 691.73 0.0 30.0 04/07/2020 10:40
71 CE , (Projects) Irrigation, Kadapa, HQ : Kadapa Kadapa Upper Sagileru Anicut 0.0 0.0 0.0 0.0 26/10/2018 06:00
72 CE , (Projects) Irrigation, Kurnool, HQ : Kurnool Kurnool ALAGANURU BALANCING RESERVOIR 0.0 0.0 0.0 0.0 07/12/2022 07:10
73 CE , (Projects) Irrigation, Kurnool, HQ : Kurnool Kurnool Gorakallu 10.6559 844.75 390.0 55.0 20/12/2021 06:00
74 CE , (Projects) Irrigation, Kurnool, HQ : Kurnool Kurnool Owk Reservoir 3.09 735.015 5884.0 6678.0 14/10/2019 06:00
75 CE , (Projects) Irrigation, Kurnool, HQ : Kurnool Kurnool Varadaraja Swamy Gudi Project 0.0142 1157.32 0.0 0.0 14/11/2018 10:00
76 CE , (Projects) Irrigation, Kurnool, HQ : Kurnool Kurnool ZURRERU RESERVOIR NA NA NA NA NA
77 CE , (Projects) Ongole, HQ : Ongole Prakasam Buggavagu Resrvoir 2.61 465.9 2915.0 2027.0 27/03/2019 06:00
78 CE , (Projects) Ongole, HQ : Ongole Prakasam Gundlakamma Project 3.446 78.65 6124.0 8269.0 05/11/2021 07:00
79 CE , (Projects) Ongole, HQ : Ongole Prakasam Paleru Bitragunta Anicut System 0.0 0.0 0.0 0.0 03/03/2019 07:00
80 CE , (Projects) Ongole, HQ : Ongole Prakasam Ramatheertham Balancing Reservoir 0.359 76.1 42.0 243.0 10/11/2016 08:00
81 CE , (Projects) Ongole, HQ : Ongole Prakasam Veeraraghavunikota Anicut System 0.0 0.0 0.0 0.0 10/07/2019 07:00
82 CE , TGP Tirupathi, HQ : Tirupati Bahuda Reservoir Project 0.056 1988.2 0.0 0.0 17/08/2020 11:00
83 CE , TGP Tirupathi, HQ : Tirupati Chittor Araniar Project 0.026 253.15 0.0 0.0 27/06/2019 06:00
84 CE , TGP Tirupathi, HQ : Tirupati Chittor Krishnapuram Reservoir 0.072 679.6 38.0 0.0 22/11/2018 18:00
85 CE , TGP Tirupathi, HQ : Tirupati Chittor Mallimadugu Reservoir Project 0.107 362.5 180.0 40.0 01/11/2019 06:00
86 CE , TGP Tirupathi, HQ : Tirupati Nellore Kalangi Reservoir Project 0.098 215.0 0.0 32.0 14/02/2022 06:00
87 CE , TGP Tirupathi, HQ : Tirupati Nellore Kanigir Reservoir 2.06 95.22 1185.0 1160.0 12/12/2018 10:00
88 CE , TGP Tirupathi, HQ : Tirupati Nellore Nellore Tank 0.317 64.22 150.0 0.0 24/11/2018 07:00
89 CE , TGP Tirupathi, HQ : Tirupati Nellore Survepalli Reservoir 0.4 19.72 100.0 200.0 11/03/2019 08:51
90 Enc Dowaleshwaram East Godavari Suram Palem 0.24826 343.01 187.1 64.85 09/09/2021 06:00
91 ENC Irrigation, HQ: Vijayawada Nellore Swarnamukhi Barrage 0.0 19.78 0.0 0.0 02/10/2018 14:00
92 ENC PIP East Godavari Bhupati Palem 0.6 667.32 0.0 1033.0 15/08/2020 12:43
93 Flood Monitoring Cell, Vijayawada Karnataka ALMATTI 122.27 1703.64 0.0 978.0 08/12/2022 06:00
94 Flood Monitoring Cell, Vijayawada Karnataka NARAYANAPUR 21.11 1601.21 573.0 129.0 08/12/2022 06:00

Data Entry Status of Reservoirs as on 09/12/2022 (Instant Data)
S.NO Unit District Reservoir Name Current Capacity
in T.M.C.
Current Level
in Feet
Inflow
in Cusecs
Outflow
in Cusecs
Last Entry Time
Updated
1 CE , Krishna Delta System, HQ : Vijayawada Guntur Dr.KLRS Pulichintala 44.9487 174.473 2200.0 2200.0 09/12/2022 21:00
2 CE , (Projects) Ongole, HQ : Ongole Guntur NAGARJUNA SAGAR 298.012 585.2 14703.0 14703.0 09/12/2022 21:00
Not Updated
3 Boggulavagu NA NA NA NA NA
4 CE , Godavari Delta Systems, HQ : Dowlaiswaram East Godavari Maddigedda Reservoir Project 0.0 0.0 0.0 0.0 17/12/2018 07:00
5 CE , Godavari Delta Systems, HQ : Dowlaiswaram East Godavari Pampa Reservoir 0.015 82.1 0.0 0.0 08/07/2019 08:00
6 CE , Godavari Delta Systems, HQ : Dowlaiswaram East Godavari Subbareddy Sagar 0.0253 247.31 8.0 0.0 17/12/2018 07:00
7 CE , Godavari Delta Systems, HQ : Dowlaiswaram East Godavari YELERU 12.46 259.62 11.0 269.0 02/05/2019 07:00
8 CE , Godavari Delta Systems, HQ : Dowlaiswaram Krishna GONELAVAGU RESERVOIR 609.0 337.61 0.0 0.0 30/11/2018 06:00
9 CE , Godavari Delta Systems, HQ : Dowlaiswaram West Godavari Kovvada Kalva 0.178 282.8 60.0 15.0 21/09/2019 12:00
10 CE , Godavari Delta Systems, HQ : Dowlaiswaram West Godavari Tammileru 1.804 347.91 0.0 90.0 28/08/2022 06:00
11 CE , Godavari Delta Systems, HQ : Dowlaiswaram West Godavari Yerra Kalva 1.75 261.64 70.0 70.0 24/09/2019 06:00
12 CE , Krishna Delta System, HQ : Vijayawada Krishna Muniyeru Anicut 0.03 221.3 928.0 678.0 02/09/2018 15:03
13 CE Minor, Vijayawada Ananthapur Upper Pennar Anicut NA NA NA NA NA
14 CE Minor, Vijayawada Chittor KALYANI DAM NA NA NA NA NA
15 CE Minor, Vijayawada Chittor Pedderu 0.56 1579.35 0.0 5.78 17/09/2020 08:00
16 CE Minor, Vijayawada Nellore Nellore Anicut 0.0 19.78 0.0 0.0 03/09/2018 01:00
17 CE Minor, Vijayawada West Godavari Jalleru 0.447 709.646 0.0 0.0 20/09/2019 06:00
18 CE , North Coast, HQ : Visakhapatnam Srikakulam Madduvalasa 2.66 210.79 2638.0 0.0 03/12/2021 06:00
19 CE , North Coast, HQ : Visakhapatnam Srikakulam Narayanapuram Anicut 0.0 88.0 50.0 50.0 02/05/2019 07:00
20 CE , North Coast, HQ : Visakhapatnam Visahakapatnam Konam Reservoir Project 0.737 329.148 60.0 117.0 08/11/2020 06:00
21 CE , North Coast, HQ : Visakhapatnam Visahakapatnam Mahadrigadda Reservoir 0.62 56.2 0.0 0.0 25/08/2021 06:00
22 CE , North Coast, HQ : Visakhapatnam Visahakapatnam Raiwada Reservoir Project 3.19 373.26 8500.0 8992.0 13/10/2020 22:00
23 CE , North Coast, HQ : Visakhapatnam Visahakapatnam Tenneti Viswanadham Pedderu 0.21675 441.7651 17.0 0.0 24/12/2018 11:00
24 CE , North Coast, HQ : Visakhapatnam Visahakapatnam Thandava Reservoir Project 4.3 379.4 12000.0 13000.0 13/10/2020 07:00
25 CE , North Coast, HQ : Visakhapatnam Vizianagaram Andra Reservoir 0.00589 439.81 0.0 0.0 26/04/2019 07:00
26 CE , North Coast, HQ : Visakhapatnam Vizianagaram Peddagadda 0.255 674.93 5.0 5.0 18/02/2019 10:00
27 CE , North Coast, HQ : Visakhapatnam Vizianagaram Thatipudi Reservoir 2.9 293.5 140.48 140.48 10/11/2016 10:44
28 CE , North Coast, HQ : Visakhapatnam Vizianagaram Thotapalli Reservoir 2.075 342.19 6150.0 4297.0 02/09/2022 06:00
29 CE , North Coast, HQ : Visakhapatnam Vizianagaram Vengalarayasagar Project 0.56 510.5611 0.0 0.0 02/07/2019 10:00
30 CE , North Coast, HQ : Visakhapatnam Vizianagaram Vottigedda Reservoir 0.885 397.3 84.0 225.0 07/02/2021 07:00
31 CE, (Projects) HNSS, Ananthapur Ananthapur Bhairavani Tippa 38.03 1633.0 0.0 0.0 07/06/2020 00:00
32 CE, (Projects) HNSS, Ananthapur Ananthapur CHAGALLU BALANCING RESERVOIR NA NA NA NA NA
33 CE, (Projects) HNSS, Ananthapur Ananthapur CHENNARAYA SWAMI GUDI PROJECT NA NA NA NA NA
34 CE, (Projects) HNSS, Ananthapur Ananthapur Jeedipalli Reservoir 1.467 1520.2 920.0 800.0 24/09/2019 06:00
35 CE, (Projects) HNSS, Ananthapur Ananthapur Mid Pennar 0.912 1160.2 787.0 5.0 14/08/2020 14:00
36 CE, (Projects) HNSS, Ananthapur Ananthapur Yogivemana Reservoir Project 0.55 1246.65 0.0 0.0 25/09/2018 06:00
37 CE, (Projects) HNSS, Ananthapur Kurnool krishnagiri NA NA NA NA NA
38 CE , (Projects) Irrigation, Kadapa, HQ : Kadapa Kadapa Annamayya 0.56513 637.467 0.0 4.0 30/01/2019 08:00
39 CE , (Projects) Irrigation, Kadapa, HQ : Kadapa Kadapa Buggavanka Reservoir 0.042 570.54 0.0 0.0 16/07/2020 08:00
40 CE , (Projects) Irrigation, Kadapa, HQ : Kadapa Kadapa GANDIKOTA RESERVOIR 4.2 203.73 0.0 320.0 10/12/2018 08:00
41 CE , (Projects) Irrigation, Kadapa, HQ : Kadapa Kadapa Jerrikona Reservoir NA NA NA NA NA
42 CE , (Projects) Irrigation, Kadapa, HQ : Kadapa Kadapa Mylavaram reservoir 2.251 635.039 0.0 369.0 15/11/2018 17:00
43 CE , (Projects) Irrigation, Kadapa, HQ : Kadapa Kadapa Paidipalem Reservoir NA NA NA NA NA
44 CE , (Projects) Irrigation, Kadapa, HQ : Kadapa Kadapa SPVB Reservoir(Brahmamgari Mattam) 11.725 683.423 717.0 0.0 14/12/2021 07:00
45 CE , (Projects) Irrigation, Kadapa, HQ : Kadapa Kadapa Subsidary Reservoir II of TGP Main Canal 0.7583 714.44 0.0 0.0 21/02/2019 07:00
46 CE , (Projects) Irrigation, Kadapa, HQ : Kadapa Kadapa Subsidary Reservoir I of TGP Main Canal 0.48157 711.07 0.0 0.0 21/02/2019 07:00
47 CE , (Projects) Irrigation, Kadapa, HQ : Kadapa Kadapa Upper Sagileru Anicut NA NA NA NA NA
48 CE , (Projects) Irrigation, Kadapa, HQ : Kadapa Kadapa Veligallu Project 3.623 1367.07 5092.0 0.0 26/11/2020 16:00
49 CE , (Projects) Irrigation, Kurnool, HQ : Kurnool Kurnool ALAGANURU BALANCING RESERVOIR 1.854 860.836 0.0 150.0 19/03/2020 07:00
50 CE , (Projects) Irrigation, Kurnool, HQ : Kurnool Kurnool Gajuladinne Project 4.5 1236.937 1500.0 1178.0 23/11/2021 14:00
51 CE , (Projects) Irrigation, Kurnool, HQ : Kurnool Kurnool Gorakallu 3.8541 790.45 9179.0 31.0 01/08/2021 18:00
52 CE , (Projects) Irrigation, Kurnool, HQ : Kurnool Kurnool Owk Reservoir 4.03 743.35 878.0 900.0 21/11/2018 08:00
53 CE , (Projects) Irrigation, Kurnool, HQ : Kurnool Kurnool SRISAILAM 125.7358 865.9 0.0 37734.0 08/12/2022 17:00
54 CE , (Projects) Irrigation, Kurnool, HQ : Kurnool Kurnool Sunkesula 1.11 957.02 0.0 104.0 18/07/2020 06:00
55 CE , (Projects) Irrigation, Kurnool, HQ : Kurnool Kurnool Varadaraja Swamy Gudi Project 0.0142 1157.32 0.0 0.0 14/11/2018 12:00
56 CE , (Projects) Irrigation, Kurnool, HQ : Kurnool Kurnool Veligodu Balancing Reservoir 12.835 860.07 0.0 4160.0 09/10/2018 08:00
57 CE , (Projects) Irrigation, Kurnool, HQ : Kurnool Kurnool ZURRERU RESERVOIR 0.034 844.5 0.0 0.0 02/11/2018 13:00
58 CE , (Projects) Ongole, HQ : Ongole Prakasam Buggavagu Resrvoir 2.562 466.4 0.0 0.0 12/11/2018 06:00
59 CE , (Projects) Ongole, HQ : Ongole Prakasam Cumbum Tank 2.952 666.67 0.0 50.0 24/10/2020 09:00
60 CE , (Projects) Ongole, HQ : Ongole Prakasam Gundlakamma Project 1.418 69.94 0.0 0.0 19/02/2019 13:00
61 CE , (Projects) Ongole, HQ : Ongole Prakasam Mopadu Reservoir 0.0 0.0 0.0 0.0 05/07/2019 09:00
62 CE , (Projects) Ongole, HQ : Ongole Prakasam Paleru Bitragunta Anicut System 0.0 0.0 0.0 0.0 03/03/2019 06:00
63 CE , (Projects) Ongole, HQ : Ongole Prakasam Rallapadu Reservoir NA NA NA NA NA
64 CE , (Projects) Ongole, HQ : Ongole Prakasam Ramatheertham Balancing Reservoir 0.802 263.12 1144.0 243.0 24/04/2019 07:00
65 CE , (Projects) Ongole, HQ : Ongole Prakasam Veeraraghavunikota Anicut System 0.0 0.0 0.0 0.0 10/07/2019 08:00
66 CE , TGP Tirupathi, HQ : Tirupati Bahuda Reservoir Project 0.114 1996.0 0.0 0.0 07/03/2019 11:00
67 CE , TGP Tirupathi, HQ : Tirupati Chittor Araniar Project NA NA NA NA NA
68 CE , TGP Tirupathi, HQ : Tirupati Chittor Krishnapuram Reservoir 0.072 679.6 38.0 0.0 22/11/2018 07:00
69 CE , TGP Tirupathi, HQ : Tirupati Chittor Mallimadugu Reservoir Project 0.073 360.06 31.0 20.0 27/10/2020 06:00
70 CE , TGP Tirupathi, HQ : Tirupati Nellore Gandipalem 0.55 21.02 0.0 0.0 03/09/2018 00:00
71 CE , TGP Tirupathi, HQ : Tirupati Nellore Kalangi Reservoir Project 0.0 0.0 0.0 0.0 17/12/2018 08:00
72 CE , TGP Tirupathi, HQ : Tirupati Nellore KANDALERU 10.348 215.234 0.0 2433.0 11/02/2019 07:00
73 CE , TGP Tirupathi, HQ : Tirupati Nellore Kanigir Reservoir 0.18 87.7 0.0 0.0 03/09/2018 12:00
74 CE , TGP Tirupathi, HQ : Tirupati Nellore Nellore Tank 0.0 0.0 0.0 0.0 03/09/2018 10:00
75 CE , TGP Tirupathi, HQ : Tirupati Nellore SOMASILA 12.846 279.64 0.0 3555.0 26/02/2019 10:00
76 CE , TGP Tirupathi, HQ : Tirupati Nellore Survepalli Reservoir 0.55 21.02 0.0 0.0 06/10/2018 11:00
77 Enc Dowaleshwaram East Godavari Suram Palem 0.25882 343.5 66.42 66.42 06/12/2016 16:00
78 ENC Irrigation, HQ: Vijayawada Ananthapur PABR 1.853 1400.24 0.0 125.0 23/04/2020 09:00
79 ENC Irrigation, HQ: Vijayawada Kadapa Chitravathi Balancing Reservoir 2.3848 948.118 0.0 40.0 03/02/2019 10:00
80 ENC Irrigation, HQ: Vijayawada Nellore Swarnamukhi Barrage 0.002 19.78 0.0 0.0 19/12/2018 07:00
81 ENC PIP East Godavari Bhupati Palem 0.65 669.29 148.124 148.124 12/12/2018 09:00
82 ENC PIP East Godavari Musurimalli 0.356 369.75 0.0 150.0 26/12/2016 08:00
83 Flood Monitoring Cell, Vijayawada Telangana Sri Pada Yellampally NA NA NA NA NA
84 Flood Monitoring Cell, Vijayawada Telangana SRI RAM SAGAR NA NA NA NA NA

Username Password

Latest Data of levels of Major Reservoirs in the State of Andhra Pradesh

S.NO.
Reservoir
Full Reservoir Level in Ft.
Date and Time
Level in feet
Present Storage
in T.M.C.
Instant Inflow in Cusecs
Instant Outflow in Cusecs
1 SRISAILAM 885.00 08-12-2022 5:00 PM 865.9 125.736 0 37,734
2 NAGARJUNA SAGAR 590.00 09-12-2022 3:00 PM 585.3 298.301 16,035 16,035
Particulars Of Major Reservoirs As On 09/12/2022 @ 06:00 A.M. (Average Readings over past 24 Hours)
Total Storage Cap. of A.P. Reservoirs
Present Storage in T.M.C.
Flood Cushion in T.M.C
Last Year As On
09/12/2021 Storage in T.M.C
S.NO Reservoir Gross Storage
at FRL in T.M.C.
Present Storage
in T.M.C.
Average Inflow
in Cusecs
Average OutFlow
in Cusecs
Flood Cushion
in T.M.C
Last Year As On
09/12/2021
Storage in T.M.C
Basin Name
1 SRI RAM SAGAR 90.313 90.31 764 764 0.003 89.76 Godavari Basin
2 JAIKWAD 102.732 99.54 0 2,441 3.192 100.91 Godavari Basin
3 ALMATTI 129.721 0 0 0 129.721 0 Krishna Basin
4 NARAYANAPUR 37.646 0 0 0 37.646 0 Krishna Basin
5 JURALA 9.657 9.62 1,822 873 0.037 9.32 Krishna Basin
6 TUNGABHADRA 105.788 88.83 998 6,438 16.958 100.86 Krishna Basin
7 SRISAILAM 215.807 125.43 417 14,631 90.377 129.78 Krishna Basin
8 NAGARJUNA SAGAR 312.045 297.72 2,943 19,638 14.325 304.99 Krishna Basin
9 UJJAINI 117.24 117.24 0 429 0 117.24 Krishna Basin
10 DR.KLRS PULICHINTALA 45.77 45.05 5,481 2,200 0.72 42.57 Krishna Basin
11 YELERU 24.1 21.04 175 175 3.06 22.92 Other Basin
12 SOMASILA 78 70.29 5,115 7,754 7.71 73.9 Pennar Basin
13 KANDALERU 68.03 53.48 3,870 2,390 14.55 0 Pennar Basin
14 VELIGODU BALANCING RESERVOIR 16.95 15.8 0 1,350 1.15 13.75 Pennar Basin
15 CHITRAVATHI BALANCING RESERVOIR 10 9.639 330 170 0.361 0 Pennar Basin
Status of Medium Irrigation Projects as on 09/12/2022
S.NO Medium Project Gross Storage
at FRL in T.M.C.
Present Storage
in T.M.C.
Average Inflow
in Cusecs
Average Outflow
in Cusecs
Flood Cushion
in T.M.C
Basin Name
1 MUSURIMALLI 1.6 0.56 150 150 1.04 Godavari Basin
2 THATIPUDI RESERVOIR 3.33 3.113 20 30 0.217 Gosthani Basin
3 CUMBUM TANK 2.952 2.208 0 20 0.744 Gundlakamma Basin
4 BHAIRAVANI TIPPA 2.001 2.001 183 183 0 Krishna Basin
5 GAJULADINNE PROJECT 4.5 3.646 156 150 0.854 Krishna Basin
6 RALLAPADU RESERVOIR 1.106 0.947 95 83 0.159 Manneru Basin
7 MOPADU RESERVOIR 2.154 0.757 0 0 1.397 Manneru Basin
8 GANDIPALEM 1.88 0.757 0 45 1.123 Manneru Basin
9 MADDUVALASA 3.373 2.888 1993 2809 0.485 Nagavali Basin
10 VENGALARAYASAGAR PROJECT 1.683 0.63 1750 1750 1.053 Nagavali Basin
11 PEDDAGADDA 1.07 0.877 50 50 0.193 Nagavali Basin
12 ANNAMAYYA 2.231 0 0 0 2.231 Pennar Basin
13 VELIGALLU PROJECT 4.64 4.573 81 320 0.067 Pennar Basin
14 UPPER PENNAR ANICUT 1.811 1.81 100 100 0.001 Pennar Basin
15 RAIWADA RESERVOIR PROJECT 3.6 3.045 126 126 0.555 Sarada Basin
16 TAMMILERU 3 0 NA NA 3 Tammileru Basin
17 YERRA KALVA 4.43 2.907 0 0 1.523 Yerra Kalva Basin

Daily Canal Releases of Major Projects for the Past Three Days Report

Select Project:
S.NO.
Off Take name
Design Discharge
Relaese in cusecs
09/12/2022 08/12/2022 07/12/2022
1 K.E.Main Canal 10600 NA NA NA
2 Bandar Regulator 5007 NA NA NA
3 K.E.B.Canal 2050 NA NA NA
4 Bandar Direct 3035 NA NA NA
5 Eluru Regulator 1643 NA NA NA
6 Ryves Regulator 4250 NA NA NA
7 Kankipadu Lock/Weir 1650 NA NA NA
8 Upper Pulleru / Lower Pulleru 1200 NA NA NA
9 East Side Channel 457 NA NA NA
10 Nidumolu Lock/Weir 325 NA NA NA
11 Head of Ramarajupalem Channel 370 NA NA NA
12 Veeranki Lock/Weir 637 NA NA NA
13 Bheemandi Channel 287 NA NA NA
14 Meduru Channel 228 NA NA NA
15 Valluripalem Lock/Weir 1739 NA NA NA
16 Gurivindapalli Lock /Weir 1727 NA NA NA
17 Nimagada Lock/Weir 1470 NA NA NA
18 9th Channel 385 NA NA NA
19 Nagayalanka Head Regulator 540 NA NA NA
20 Koduru Channel 460 NA NA NA
21 Komatigunta Lock/Weir 3350 NA NA NA
22 Dosapadu Channel 623 NA NA NA
23 Vyuru Weir 1000 NA NA NA
24 Marrivada Lock/Weir 640 NA NA NA
25 Balliparru Lock/Weir 3300 NA NA NA
26 Polaraju Lock/Weir 645 NA NA NA
27 Bantumalli Lock/Weir 935 NA NA NA
28 Camp Bell Canal 705 NA NA NA
29 Flume U/S of Perikeedu Bridge 825 NA NA NA
30 East Lock (Krishna Eluru Canal) 230 NA NA NA